Terminal Aerodrome Forecast
Issued by NWS Twin Cities, MN

Home | Current Version | Previous Version | Text Only | Print | Product List | Glossary On
Versions: 1 2 3 4 5 6 7 8 9 10 11 12 13 14 15 16 17 18 19 20 21 22 23 24 25 26 27 28 29 30 31 32 33
000
FTUS43 KMPX 282300
TAFMSP
TAF
KMSP 282333Z 2900/3006 12007KT P6SM BKN090
     FM291000 14005KT 4SM BR SCT004 BKN090
     FM291500 18008KT P6SM SCT090
     FM292200 27008KT P6SM SCT020 BKN250=

USA.gov is the U.S. government's official web portal to all federal, state and local government web resources and services.